HappyWetter - St.Margarethen im Burgenland
Wetterdaten: aktuell Mittwoch, 01.04.2020 00:21
Datum Zeit Temp. A. Feuchte A. Luftdruck Regen Wind Richtung Richtung Sonnenschein ET Solar Taupunkt Windchill Windben Empfang
01.04.2020 00:21 0,0 C 81 % 1025,9 hPa 0,0 l/m 4,7 km/h (1 Bft) W 267 0 min 0,000 mm 0 W/m -2,9 C 0,0 C 6,4 km/h (2 Bft) 100,00 %
31.03.2020 23:21 -0,6 C 78 % 1025,9 hPa 0,0 l/m 4,7 km/h (1 Bft) W-NW 288 0 min 0,025 mm 0 W/m -3,9 C -0,6 C 6,4 km/h (2 Bft) 100,00 %
31.03.2020 22:21 1,3 C 75 % 1025,9 hPa 0,0 l/m 2,7 km/h (1 Bft) NW 311 0 min 0,001 mm 0 W/m -2,6 C 1,3 C 4,8 km/h (1 Bft) 100,00 %
31.03.2020 21:21 2,4 C 74 % 1025,5 hPa 0,0 l/m 3,1 km/h (1 Bft) N-NW 338 0 min 0,025 mm 0 W/m -1,7 C 2,4 C 6,4 km/h (2 Bft) 100,00 %
31.03.2020 20:21 2,9 C 72 % 1025,4 hPa 0,0 l/m 7,9 km/h (2 Bft) W-NW 302 0 min 0,025 mm 0 W/m -1,6 C 1,5 C 11,3 km/h (2 Bft) 100,00 %
31.03.2020 19:18 4,1 C 65 % 1024,6 hPa 0,0 l/m 6,0 km/h (2 Bft) W 269 0 min 0,001 mm 7 W/m -1,9 C 4,1 C 8,0 km/h (2 Bft) 100,00 %
31.03.2020 18:18 5,7 C 59 % 1024,2 hPa 0,0 l/m 10,5 km/h (2 Bft) NO 40 32 min 0,152 mm 49 W/m -1,7 C 2,5 C 20,9 km/h (4 Bft) 100,00 %
31.03.2020 17:17 6,9 C 46 % 1023,7 hPa 0,0 l/m 9,0 km/h (2 Bft) W-NW 303 0 min 0,102 mm 132 W/m -3,9 C 4,9 C 16,1 km/h (3 Bft) 100,00 %
31.03.2020 16:15 7,4 C 39 % 1023,6 hPa 0,0 l/m 3,7 km/h (1 Bft) O 90 46 min 0,177 mm 104 W/m -5,6 C 7,4 C 4,8 km/h (1 Bft) 100,00 %
31.03.2020 15:13 8,2 C 40 % 1023,8 hPa 0,0 l/m 8,7 km/h (2 Bft) O-SO 107 56 min 0,001 mm 671 W/m -4,6 C 6,5 C 11,3 km/h (2 Bft) 100,00 %
31.03.2020 14:10 7,6 C 40 % 1024,4 hPa 0,0 l/m 9,1 km/h (2 Bft) O-NO 61 60 min 0,305 mm 742 W/m -5,1 C 5,5 C 11,3 km/h (2 Bft) 91,67 %
31.03.2020 13:10 8,2 C 39 % 1025,0 hPa 0,0 l/m 8,4 km/h (2 Bft) S-SW 204 60 min 0,304 mm 788 W/m -4,9 C 6,7 C 14,5 km/h (3 Bft) 100,00 %
31.03.2020 12:10 6,4 C 41 % 1025,5 hPa 0,0 l/m 2,6 km/h (1 Bft) N-NW 336 60 min 0,001 mm 448 W/m -5,9 C 6,4 C 4,8 km/h (1 Bft) 100,00 %
31.03.2020 11:10 6,3 C 40 % 1025,9 hPa 0,0 l/m 4,1 km/h (1 Bft) SO 130 60 min 0,254 mm 638 W/m -6,3 C 6,3 C 6,4 km/h (2 Bft) 100,00 %
31.03.2020 10:09 5,2 C 42 % 1026,1 hPa 0,0 l/m 3,3 km/h (1 Bft) S-SW 196 60 min 0,178 mm 517 W/m -6,6 C 5,2 C 4,8 km/h (1 Bft) 100,00 %
31.03.2020 09:08 3,0 C 53 % 1026,3 hPa 0,0 l/m 2,0 km/h (1 Bft) SW 227 60 min 0,101 mm 334 W/m -5,6 C 3,0 C 3,2 km/h (1 Bft) 100,00 %
31.03.2020 08:08 -0,4 C 66 % 1025,9 hPa 0,0 l/m 2,9 km/h (1 Bft) S-SW 210 18 min 0,026 mm 204 W/m -6,0 C -0,4 C 6,4 km/h (2 Bft) 100,00 %
31.03.2020 07:07 -3,9 C 71 % 1025,4 hPa 0,0 l/m 0,0 km/h (0 Bft) SW 227 0 min 0,000 mm 37 W/m -8,4 C -3,9 C 0,0 km/h (0 Bft) 100,00 %
31.03.2020 06:06 -4,4 C 69 % 1025,1 hPa 0,0 l/m 2,9 km/h (1 Bft) S-SW 199 0 min 0,025 mm 0 W/m -9,2 C -4,4 C 3,2 km/h (1 Bft) 93,75 %
31.03.2020 05:06 -3,9 C 69 % 1024,9 hPa 0,0 l/m 4,1 km/h (1 Bft) S-SW 205 0 min 0,025 mm 0 W/m -8,7 C -3,9 C 4,8 km/h (1 Bft) 100,00 %
31.03.2020 04:04 -3,8 C 69 % 1024,7 hPa 0,0 l/m 4,2 km/h (1 Bft) S-SW 212 0 min 0,026 mm 0 W/m -8,6 C -3,8 C 6,4 km/h (2 Bft) 95,83 %
31.03.2020 03:04 -3,1 C 66 % 1024,9 hPa 0,0 l/m 3,9 km/h (1 Bft) SW 218 0 min 0,025 mm 0 W/m -8,5 C -3,1 C 4,8 km/h (1 Bft) 100,00 %
31.03.2020 02:04 -2,8 C 64 % 1024,9 hPa 0,0 l/m 1,5 km/h (1 Bft) S 171 0 min 0,026 mm 0 W/m -8,6 C -2,8 C 1,6 km/h (1 Bft) 96,00 %
31.03.2020 01:03 -2,1 C 63 % 1024,9 hPa 0,0 l/m 3,1 km/h (1 Bft) O 96 0 min 0,025 mm 0 W/m -8,2 C -2,1 C 6,4 km/h (2 Bft) 96,00 %
31.03.2020 01:00 -2,1 C 63 % 1024,9 hPa 0,0 l/m 3,0 km/h (1 Bft) W 273 0 min 0,025 mm 0 W/m -8,2 C -2,1 C 4,8 km/h (1 Bft) 100,00 %
_ Min-Zeit 06:51 15:26 16:41 - 09:27 - - - - - 06:39 18:45 09:27 09:17
Minimum _ -4,7 C 36 % 1023,5 hPa - 0,0 km/h (0 Bft) - - - - - -9,2 C -4,9 C 0,0 km/h (0 Bft) 83,33 %
_ Max-Zeit 13:26 00:21 09:44 00:21 18:38 - - 15:31 14:01 13:37 18:48 13:24 18:37 00:21
Maximum _ 8,7 C 81 % 1026,4 hPa 0,0 l/m 23,0 km/h
N-NW (4 Bft)
- - 2 min 0,305 mm 896 W/m -1,2 C 8,7 C 35,4 km/h
NW (5 Bft)
100,00 %
Durchschnitt _ 2,1 C 59 % 1025,1 hPa #0,0 l/m 5,2 km/h (1 Bft) SW - #0 min. #0,000 mm 0 W/m -5,6 C 1,3 C 7,9 km/h (2 Bft) 98,88 %